Time,TemperatureF,DewpointF,PressureIn,WindDirection,WindDirectionDegrees,WindSpeedMPH,WindSpeedGustMPH,Humidity,HourlyPrecipIn,Conditions,Clouds,dailyrainin,SoftwareType,DateUTC
2013-07-09 00:04:00,80.1,69.8,29.93,South,180,6.3,-999.0,71,-99.99,,,0.00,Acu-Link.com,2013-07-09 05:04:00,
2013-07-09 00:19:00,80.6,69.9,29.94,SSE,157,4.7,-999.0,70,-99.99,,,0.00,Acu-Link.com,2013-07-09 05:19:00,
2013-07-09 00:34:00,80.4,69.7,29.93,South,180,6.8,-999.0,70,-99.99,,,0.00,Acu-Link.com,2013-07-09 05:34:00,
2013-07-09 00:49:00,80.4,69.3,29.93,ESE,112,3.7,-999.0,69,-99.99,,,0.00,Acu-Link.com,2013-07-09 05:49:00,
2013-07-09 01:05:00,79.7,69.4,29.93,SE,135,4.7,-999.0,71,-99.99,,,0.00,Acu-Link.com,2013-07-09 06:05:00,
2013-07-09 01:20:00,79.3,69.1,29.93,SSW,202,6.8,-999.0,71,-99.99,,,0.00,Acu-Link.com,2013-07-09 06:20:00,
2013-07-09 01:35:00,79.2,69.4,29.94,SSE,157,3.7,-999.0,72,-99.99,,,0.00,Acu-Link.com,2013-07-09 06:35:00,
2013-07-09 01:50:00,78.8,69.0,29.94,SSE,157,6.8,-999.0,72,-99.99,,,0.00,Acu-Link.com,2013-07-09 06:50:00,
2013-07-09 02:05:00,78.8,69.4,29.94,South,180,5.3,-999.0,73,-99.99,,,0.00,Acu-Link.com,2013-07-09 07:05:00,
2013-07-09 02:20:00,78.1,69.1,29.94,South,180,4.7,-999.0,74,-99.99,,,0.00,Acu-Link.com,2013-07-09 07:20:00,
2013-07-09 02:35:00,78.1,69.1,29.94,South,180,4.2,-999.0,74,-99.99,,,0.00,Acu-Link.com,2013-07-09 07:35:00,
2013-07-09 03:06:00,77.4,68.8,29.94,South,180,3.7,-999.0,75,-99.99,,,0.00,Acu-Link.com,2013-07-09 08:06:00,
2013-07-09 03:21:00,77.2,68.6,29.94,South,180,3.7,-999.0,75,-99.99,,,0.00,Acu-Link.com,2013-07-09 08:21:00,
2013-07-09 03:36:00,76.5,68.7,29.93,South,180,4.2,-999.0,77,-99.99,,,0.00,Acu-Link.com,2013-07-09 08:36:00,
2013-07-09 03:52:00,76.5,68.7,29.92,South,180,5.3,-999.0,77,-99.99,,,0.00,Acu-Link.com,2013-07-09 08:52:00,
2013-07-09 04:07:00,76.5,68.7,29.93,SSW,202,4.7,-999.0,77,-99.99,,,0.00,Acu-Link.com,2013-07-09 09:07:00,
2013-07-09 04:22:00,76.6,68.8,29.93,South,180,5.3,-999.0,77,-99.99,,,0.00,Acu-Link.com,2013-07-09 09:22:00,
2013-07-09 04:37:00,76.3,68.5,29.94,SSW,202,1.7,-999.0,77,-99.99,,,0.00,Acu-Link.com,2013-07-09 09:37:00,
2013-07-09 04:52:00,75.4,68.4,29.95,SSW,202,0.0,-999.0,79,-99.99,,,0.00,Acu-Link.com,2013-07-09 09:52:00,
2013-07-09 05:07:00,75.4,68.4,29.97,SSW,202,2.7,-999.0,79,-99.99,,,0.00,Acu-Link.com,2013-07-09 10:07:00,
2013-07-09 05:22:00,75.4,68.8,29.98,SW,225,0.0,-999.0,80,-99.99,,,0.00,Acu-Link.com,2013-07-09 10:22:00,
2013-07-09 05:38:00,75.0,69.1,29.99,SW,225,0.0,-999.0,82,-99.99,,,0.00,Acu-Link.com,2013-07-09 10:38:00,
2013-07-09 05:53:00,74.5,69.3,29.99,SW,225,0.0,-999.0,84,-99.99,,,0.00,Acu-Link.com,2013-07-09 10:53:00,
2013-07-09 06:08:00,74.3,69.5,29.98,SW,225,0.0,-999.0,85,-99.99,,,0.00,Acu-Link.com,2013-07-09 11:08:00,
2013-07-09 06:23:00,75.0,70.5,29.98,WSW,247,3.7,-999.0,86,-99.99,,,0.00,Acu-Link.com,2013-07-09 11:23:00,
2013-07-09 06:39:00,74.8,70.7,29.95,WSW,247,0.0,-999.0,87,-99.99,,,0.00,Acu-Link.com,2013-07-09 11:39:00,
2013-07-09 06:54:00,74.1,71.0,29.95,ESE,112,0.0,-999.0,90,-99.99,,,0.00,Acu-Link.com,2013-07-09 11:54:00,
2013-07-09 07:09:00,74.5,71.7,29.95,ESE,112,0.0,-999.0,91,-99.99,,,0.00,Acu-Link.com,2013-07-09 12:09:00,
2013-07-09 07:25:00,74.5,72.0,29.93,East,90,2.7,-999.0,92,-99.99,,,0.00,Acu-Link.com,2013-07-09 12:25:00,
2013-07-09 07:40:00,75.0,72.2,29.93,ESE,112,3.7,-999.0,91,-99.99,,,0.00,Acu-Link.com,2013-07-09 12:40:00,
2013-07-09 07:55:00,75.7,72.2,29.93,East,90,2.7,-999.0,89,-99.99,,,0.00,Acu-Link.com,2013-07-09 12:55:00,
2013-07-09 08:10:00,77.2,72.3,29.93,ESE,112,2.7,-999.0,85,-99.99,,,0.00,Acu-Link.com,2013-07-09 13:10:00,
2013-07-09 08:25:00,79.9,73.2,29.94,ESE,112,3.7,-999.0,80,-99.99,,,0.00,Acu-Link.com,2013-07-09 13:25:00,
2013-07-09 08:40:00,78.6,73.3,29.95,ESE,112,2.2,-999.0,84,-99.99,,,0.00,Acu-Link.com,2013-07-09 13:40:00,
2013-07-09 08:55:00,78.6,73.7,29.94,ESE,112,2.7,-999.0,85,-99.99,,,0.00,Acu-Link.com,2013-07-09 13:55:00,
2013-07-09 09:11:00,80.6,74.2,29.94,East,90,4.7,-999.0,81,-99.99,,,0.00,Acu-Link.com,2013-07-09 14:11:00,
2013-07-09 09:26:00,81.1,73.6,29.95,ESE,112,3.2,-999.0,78,-99.99,,,0.00,Acu-Link.com,2013-07-09 14:26:00,
2013-07-09 09:41:00,82.9,74.1,29.94,South,180,6.8,-999.0,75,-99.99,,,0.00,Acu-Link.com,2013-07-09 14:41:00,
2013-07-09 09:56:00,80.4,72.5,29.93,SSE,157,6.8,-999.0,77,-99.99,,,0.00,Acu-Link.com,2013-07-09 14:56:00,
2013-07-09 10:11:00,80.4,72.9,29.93,South,180,6.8,-999.0,78,-99.99,,,0.00,Acu-Link.com,2013-07-09 15:11:00,
2013-07-09 10:27:00,79.5,72.8,29.93,SSE,157,5.3,-999.0,80,-99.99,,,0.01,Acu-Link.com,2013-07-09 15:27:00,
2013-07-09 10:42:00,80.8,73.3,29.93,ESE,112,6.8,-999.0,78,-99.99,,,0.01,Acu-Link.com,2013-07-09 15:42:00,
2013-07-09 10:57:00,81.7,73.8,29.93,South,180,5.8,-999.0,77,-99.99,,,0.01,Acu-Link.com,2013-07-09 15:57:00,
2013-07-09 11:12:00,82.6,73.9,29.93,SSW,202,6.8,-999.0,75,-99.99,,,0.01,Acu-Link.com,2013-07-09 16:12:00,
2013-07-09 11:27:00,82.8,74.0,29.93,SSW,202,4.7,-999.0,75,-99.99,,,0.01,Acu-Link.com,2013-07-09 16:27:00,
2013-07-09 11:42:00,82.6,75.8,29.93,SSW,202,3.7,-999.0,80,-99.99,,,0.01,Acu-Link.com,2013-07-09 16:42:00,
2013-07-09 11:58:00,84.6,76.2,29.92,SSW,202,7.3,-999.0,76,-99.99,,,0.01,Acu-Link.com,2013-07-09 16:58:00,
2013-07-09 12:13:00,88.5,77.9,29.91,SSW,202,6.8,-999.0,71,-99.99,,,0.01,Acu-Link.com,2013-07-09 17:13:00,
2013-07-09 12:28:00,89.2,78.1,29.91,ESE,112,4.7,-999.0,70,-99.99,,,0.01,Acu-Link.com,2013-07-09 17:28:00,
2013-07-09 12:43:00,89.6,75.3,29.91,SSW,202,3.2,-999.0,63,-99.99,,,0.01,Acu-Link.com,2013-07-09 17:43:00,
2013-07-09 12:58:00,90.1,76.7,29.91,South,180,5.3,-999.0,65,-99.99,,,0.01,Acu-Link.com,2013-07-09 17:58:00,
2013-07-09 13:13:00,91.6,77.7,29.89,South,180,4.7,-999.0,64,-99.99,,,0.01,Acu-Link.com,2013-07-09 18:13:00,
2013-07-09 13:28:00,92.8,78.3,29.89,South,180,6.3,-999.0,63,-99.99,,,0.01,Acu-Link.com,2013-07-09 18:28:00,
2013-07-09 13:43:00,92.1,77.2,29.89,South,180,3.7,-999.0,62,-99.99,,,0.01,Acu-Link.com,2013-07-09 18:43:00,
2013-07-09 13:59:00,94.1,77.5,29.88,SW,225,4.7,-999.0,59,-99.99,,,0.01,Acu-Link.com,2013-07-09 18:59:00,
2013-07-09 14:14:00,94.3,77.2,29.88,NW,315,5.8,-999.0,58,-99.99,,,0.01,Acu-Link.com,2013-07-09 19:14:00,
2013-07-09 14:29:00,93.9,76.8,29.87,SW,225,5.3,-999.0,58,-99.99,,,0.01,Acu-Link.com,2013-07-09 19:29:00,
2013-07-09 14:44:00,94.3,77.2,29.87,SSE,157,4.2,-999.0,58,-99.99,,,0.01,Acu-Link.com,2013-07-09 19:44:00,
2013-07-09 14:59:00,95.0,78.4,29.86,South,180,3.7,-999.0,59,-99.99,,,0.01,Acu-Link.com,2013-07-09 19:59:00,
2013-07-09 15:15:00,94.6,77.5,29.86,SW,225,3.2,-999.0,58,-99.99,,,0.01,Acu-Link.com,2013-07-09 20:15:00,
2013-07-09 15:30:00,94.8,78.2,29.86,ESE,112,2.7,-999.0,59,-99.99,,,0.01,Acu-Link.com,2013-07-09 20:30:00,
2013-07-09 15:45:00,96.4,78.6,29.86,South,180,10.9,-999.0,57,-99.99,,,0.01,Acu-Link.com,2013-07-09 20:45:00,
2013-07-09 16:00:00,96.3,77.5,29.85,SSE,157,3.2,-999.0,55,-99.99,,,0.01,Acu-Link.com,2013-07-09 21:00:00,
2013-07-09 16:16:00,97.5,79.7,29.85,West,270,0.0,-999.0,57,-99.99,,,0.01,Acu-Link.com,2013-07-09 21:16:00,
2013-07-09 16:31:00,97.3,76.7,29.85,SW,225,1.1,-999.0,52,-99.99,,,0.01,Acu-Link.com,2013-07-09 21:31:00,
2013-07-09 16:46:00,97.3,75.5,29.85,SSW,202,5.3,-999.0,50,-99.99,,,0.01,Acu-Link.com,2013-07-09 21:46:00,
2013-07-09 17:01:00,97.3,76.1,29.85,WSW,247,2.7,-999.0,51,-99.99,,,0.01,Acu-Link.com,2013-07-09 22:01:00,
2013-07-09 17:16:00,97.3,76.7,29.85,WNW,292,5.3,-999.0,52,-99.99,,,0.01,Acu-Link.com,2013-07-09 22:16:00,
2013-07-09 17:31:00,97.2,78.3,29.85,WNW,292,2.2,-999.0,55,-99.99,,,0.01,Acu-Link.com,2013-07-09 22:31:00,
2013-07-09 17:46:00,97.9,77.8,29.84,NW,315,2.7,-999.0,53,-99.99,,,0.01,Acu-Link.com,2013-07-09 22:46:00,
2013-07-09 18:02:00,103.3,79.7,29.84,NW,315,3.2,-999.0,48,-99.99,,,0.01,Acu-Link.com,2013-07-09 23:02:00,
2013-07-09 18:17:00,99.1,79.5,29.83,West,270,6.8,-999.0,54,-99.99,,,0.01,Acu-Link.com,2013-07-09 23:17:00,
2013-07-09 18:32:00,97.3,80.0,29.84,NNW,337,5.3,-999.0,58,-99.99,,,0.01,Acu-Link.com,2013-07-09 23:32:00,
2013-07-09 18:47:00,96.6,79.3,29.83,North,0,4.7,-999.0,58,-99.99,,,0.01,Acu-Link.com,2013-07-09 23:47:00,
2013-07-09 19:02:00,97.2,79.9,29.83,NNE,22,4.2,-999.0,58,-99.99,,,0.01,Acu-Link.com,2013-07-10 00:02:00,
2013-07-09 19:17:00,97.0,79.7,29.83,East,90,2.2,-999.0,58,-99.99,,,0.01,Acu-Link.com,2013-07-10 00:17:00,
2013-07-09 19:33:00,95.5,80.9,29.83,East,90,2.2,-999.0,63,-99.99,,,0.01,Acu-Link.com,2013-07-10 00:33:00,
2013-07-09 19:48:00,94.8,80.2,29.83,East,90,0.0,-999.0,63,-99.99,,,0.01,Acu-Link.com,2013-07-10 00:48:00,
2013-07-09 20:03:00,93.7,80.6,29.84,East,90,0.0,-999.0,66,-99.99,,,0.01,Acu-Link.com,2013-07-10 01:03:00,
2013-07-09 20:18:00,92.7,80.1,29.84,East,90,0.0,-999.0,67,-99.99,,,0.01,Acu-Link.com,2013-07-10 01:18:00,
2013-07-09 20:33:00,90.5,79.3,29.84,East,90,0.0,-999.0,70,-99.99,,,0.01,Acu-Link.com,2013-07-10 01:33:00,
2013-07-09 20:48:00,88.2,78.8,29.84,East,90,0.0,-999.0,74,-99.99,,,0.01,Acu-Link.com,2013-07-10 01:48:00,
2013-07-09 21:04:00,86.2,78.1,29.85,East,90,0.0,-999.0,77,-99.99,,,0.01,Acu-Link.com,2013-07-10 02:04:00,
2013-07-09 21:19:00,85.3,78.0,29.86,East,90,0.0,-999.0,79,-99.99,,,0.01,Acu-Link.com,2013-07-10 02:19:00,
2013-07-09 21:34:00,84.2,77.7,29.86,East,90,0.0,-999.0,81,-99.99,,,0.01,Acu-Link.com,2013-07-10 02:34:00,
2013-07-09 21:49:00,83.7,78.0,29.87,East,90,0.0,-999.0,83,-99.99,,,0.01,Acu-Link.com,2013-07-10 02:49:00,
2013-07-09 22:04:00,82.9,77.9,29.86,East,90,0.0,-999.0,85,-99.99,,,0.01,Acu-Link.com,2013-07-10 03:04:00,
2013-07-09 22:19:00,82.2,77.9,29.87,East,90,0.0,-999.0,87,-99.99,,,0.01,Acu-Link.com,2013-07-10 03:19:00,
2013-07-09 22:36:00,82.0,77.7,29.87,East,90,0.0,-999.0,87,-99.99,,,0.01,Acu-Link.com,2013-07-10 03:36:00,
2013-07-09 22:52:00,82.0,77.7,29.87,East,90,1.7,-999.0,87,-99.99,,,0.01,Acu-Link.com,2013-07-10 03:52:00,
2013-07-09 23:07:00,82.0,77.4,29.87,East,90,1.1,-999.0,86,-99.99,,,0.01,Acu-Link.com,2013-07-10 04:07:00,
2013-07-09 23:22:00,81.5,77.2,29.88,East,90,0.0,-999.0,87,-99.99,,,0.01,Acu-Link.com,2013-07-10 04:22:00,
2013-07-09 23:38:00,81.1,77.2,29.87,East,90,2.2,-999.0,88,-99.99,,,0.01,Acu-Link.com,2013-07-10 04:38:00,
2013-07-09 23:53:00,81.0,77.1,29.88,East,90,0.0,-999.0,88,-99.99,,,0.01,Acu-Link.com,2013-07-10 04:53:00,